Time;durP1;ratioP1;P1;durP2;ratioP2;P2;SDS_P1;SDS_P2;PMS_P1;PMS_P2;Temp;Humidity;BMP_temperature;BMP_pressure;BME280_temperature;BME280_humidity;BME280_pressure;Samples;Min_cycle;Max_cycle;Signal;HPM_P1;HPM_P2
2020/12/01 00:00:26;;;;;;;90.43;45.50;;;;;;;-2.12;80.77;100798.97;126659;1093;104471;-75
2020/12/01 00:02:56;;;;;;;92.53;45.93;;;;;;;-2.06;80.98;100799.13;126653;1093;104349;-75
2020/12/01 00:05:26;;;;;;;97.97;47.03;;;;;;;-2.00;80.53;100810.37;126658;1091;103145;-75
2020/12/01 00:07:53;;;;;;;94.63;47.27;;;;;;;-1.97;80.99;100820.70;126712;1093;105043;-75
2020/12/01 00:10:20;;;;;;;96.97;47.67;;;;;;;-1.97;80.75;100820.70;126774;1093;104366;-76
2020/12/01 00:12:49;;;;;;;94.60;48.25;;;;;;;-1.96;80.59;100813.91;126702;1093;104384;-75
2020/12/01 00:15:21;;;;;;;96.10;47.30;;;;;;;-1.97;80.81;100823.27;126696;1093;104432;-75
2020/12/01 00:17:49;;;;;;;96.20;48.13;;;;;;;-1.96;80.90;100811.35;126708;1098;104506;-75
2020/12/01 00:20:20;;;;;;;91.00;46.87;;;;;;;-1.94;81.25;100813.13;126661;1093;104410;-75
2020/12/01 00:22:47;;;;;;;95.97;48.33;;;;;;;-1.92;81.04;100814.02;126726;1093;104173;-75
2020/12/01 00:25:16;;;;;;;95.20;48.27;;;;;;;-1.88;80.68;100807.30;126679;1093;104452;-75
2020/12/01 00:27:44;;;;;;;99.00;48.23;;;;;;;-1.86;80.46;100814.17;126710;1098;104528;-76
2020/12/01 00:30:17;;;;;;;94.63;47.53;;;;;;;-1.84;80.63;100815.08;126672;1093;103736;-75
2020/12/01 00:32:45;;;;;;;96.47;47.80;;;;;;;-1.80;80.51;100815.16;126701;1093;104471;-75
2020/12/01 00:35:16;;;;;;;102.27;49.03;;;;;;;-1.77;81.30;100815.27;126663;1098;104447;-75
2020/12/01 00:37:44;;;;;;;107.20;50.80;;;;;;;-1.76;80.80;100822.98;126656;1093;104840;-75
2020/12/01 00:40:12;;;;;;;98.63;50.03;;;;;;;-1.75;81.17;100827.27;126678;1093;104442;-75
2020/12/01 00:42:40;;;;;;;101.87;50.57;;;;;;;-1.72;81.03;100826.47;126712;1093;104797;-75
2020/12/01 00:45:09;;;;;;;109.10;51.23;;;;;;;-1.71;80.74;100817.97;126633;1093;104398;-75
2020/12/01 00:47:37;;;;;;;106.53;51.37;;;;;;;-1.70;80.50;100815.45;126691;1091;104538;-74
2020/12/01 00:50:07;;;;;;;103.57;51.63;;;;;;;-1.67;80.42;100817.22;126723;1093;104541;-75
2020/12/01 00:52:35;;;;;;;107.83;52.00;;;;;;;-1.67;80.64;100819.78;126510;1093;104490;-75
2020/12/01 00:55:05;;;;;;;111.13;54.20;;;;;;;-1.67;81.08;100814.66;126689;1093;104445;-75
2020/12/01 00:57:33;;;;;;;109.30;52.43;;;;;;;-1.68;81.17;100812.94;126630;1093;104430;-76
2020/12/01 01:00:04;;;;;;;108.87;54.27;;;;;;;-1.70;81.13;100810.34;126653;1093;106480;-75
2020/12/01 01:02:46;;;;;;;111.20;54.03;;;;;;;-1.72;80.82;100800.91;126688;1093;105217;-75
2020/12/01 01:05:13;;;;;;;117.10;55.75;;;;;;;-1.71;81.19;100802.63;126668;1098;104656;-75
2020/12/01 01:07:40;;;;;;;108.25;53.30;;;;;;;-1.72;80.74;100806.02;126657;1093;104247;-75
2020/12/01 01:10:14;;;;;;;113.33;55.93;;;;;;;-1.75;81.08;100804.25;126608;1093;105755;-75
2020/12/01 01:12:42;;;;;;;111.73;55.87;;;;;;;-1.76;81.16;100799.96;126683;1093;104371;-74
2020/12/01 01:15:09;;;;;;;117.90;55.83;;;;;;;-1.78;81.17;100814.41;126699;1093;104520;-75
2020/12/01 01:17:36;;;;;;;113.83;56.23;;;;;;;-1.80;80.84;100804.93;126666;1093;104533;-75
2020/12/01 01:20:06;;;;;;;116.87;56.77;;;;;;;-1.83;80.99;100809.14;126674;1093;104504;-75
2020/12/01 01:22:33;;;;;;;118.80;56.70;;;;;;;-1.87;80.91;100798.80;126661;1093;104523;-74
2020/12/01 01:25:00;;;;;;;118.00;57.93;;;;;;;-1.91;80.93;100797.86;126530;1093;104389;-75
2020/12/01 01:27:28;;;;;;;113.77;55.40;;;;;;;-1.96;80.98;100791.77;126641;1090;104395;-75
2020/12/01 01:29:55;;;;;;;111.77;54.67;;;;;;;-2.00;80.83;100794.17;126729;1093;103822;-75
2020/12/01 01:32:22;;;;;;;116.75;55.60;;;;;;;-2.06;80.70;100794.88;126699;1093;105059;-75
2020/12/01 01:34:49;;;;;;;120.50;57.43;;;;;;;-2.10;81.10;100782.84;126675;1093;104456;-75
2020/12/01 01:37:16;;;;;;;113.73;56.00;;;;;;;-2.15;81.65;100784.42;126729;1093;104600;-75
2020/12/01 01:39:43;;;;;;;116.67;56.80;;;;;;;-2.19;81.26;100785.13;126644;1093;104450;-75
2020/12/01 01:42:11;;;;;;;118.47;56.80;;;;;;;-2.22;81.63;100780.81;126741;1093;104391;-74
2020/12/01 01:44:38;;;;;;;118.00;55.47;;;;;;;-2.26;81.41;100789.22;126647;1093;104430;-74
2020/12/01 01:47:19;;;;;;;118.10;58.07;;;;;;;-2.30;81.61;100776.33;126682;1093;104903;-74
2020/12/01 01:49:49;;;;;;;116.43;55.30;;;;;;;-2.30;81.93;100776.33;126708;1093;104215;-75
2020/12/01 01:52:23;;;;;;;126.43;58.37;;;;;;;-2.31;81.62;100777.15;126623;1093;105010;-75
2020/12/01 01:54:56;;;;;;;123.30;58.40;;;;;;;-2.31;81.67;100775.45;126730;1093;105028;-76
2020/12/01 01:57:25;;;;;;;114.57;55.83;;;;;;;-2.29;81.75;100776.36;126582;1093;104256;-75
2020/12/01 01:59:52;;;;;;;119.37;57.00;;;;;;;-2.26;82.29;100768.78;126735;1093;104464;-76
2020/12/01 02:02:20;;;;;;;110.77;55.43;;;;;;;-2.26;82.24;100773.89;126685;1093;104381;-75
2020/12/01 02:04:47;;;;;;;116.50;56.03;;;;;;;-2.23;81.78;100766.30;126686;1093;102017;-75
2020/12/01 02:07:15;;;;;;;118.00;57.58;;;;;;;-2.19;82.38;100760.45;126669;1093;104874;-75
2020/12/01 02:09:48;;;;;;;118.63;57.03;;;;;;;-2.15;82.34;100764.84;126670;1093;104496;-75
2020/12/01 02:12:17;;;;;;;119.93;57.43;;;;;;;-2.11;81.79;100765.78;126749;1093;104360;-75
2020/12/01 02:14:58;;;;;;;116.37;54.80;;;;;;;-2.08;82.34;100763.31;126774;1093;105630;-75
2020/12/01 02:17:29;;;;;;;115.77;55.67;;;;;;;-2.06;82.69;100774.44;126701;1093;104445;-75
2020/12/01 02:20:19;;;;;;;113.63;55.87;;;;;;;-2.05;82.37;100762.52;126647;1093;104535;-75
2020/12/01 02:22:50;;;;;;;118.10;53.80;;;;;;;-2.03;82.60;100754.06;126601;1093;104535;-75
2020/12/01 02:25:19;;;;;;;119.27;55.60;;;;;;;-2.02;82.74;100760.91;126654;1093;104477;-74
2020/12/01 02:27:52;;;;;;;116.87;55.67;;;;;;;-1.98;82.57;100754.18;126725;1093;104378;-75
2020/12/01 02:30:19;;;;;;;114.47;55.70;;;;;;;-1.94;83.09;100753.45;126698;1093;102491;-75
2020/12/01 02:32:48;;;;;;;115.70;55.27;;;;;;;-1.90;82.79;100755.27;126767;1093;102066;-75
2020/12/01 02:35:16;;;;;;;115.87;55.30;;;;;;;-1.88;82.65;100749.36;126655;1093;104474;-75
2020/12/01 02:37:43;;;;;;;113.13;53.23;;;;;;;-1.86;83.16;100750.27;126689;1093;104346;-75
2020/12/01 02:40:14;;;;;;;112.83;54.17;;;;;;;-1.83;83.06;100754.58;126677;1091;104471;-75
2020/12/01 02:42:43;;;;;;;113.67;53.60;;;;;;;-1.80;82.71;100757.22;126705;1094;104366;-74
2020/12/01 02:45:10;;;;;;;116.47;53.90;;;;;;;-1.75;82.34;100755.66;126681;1093;104455;-74
2020/12/01 02:47:42;;;;;;;112.87;53.90;;;;;;;-1.73;82.85;100760.81;126666;1093;106413;-75
2020/12/01 02:50:12;;;;;;;116.20;55.30;;;;;;;-1.72;82.84;100754.88;126675;1093;104452;-75
2020/12/01 02:52:39;;;;;;;108.13;51.87;;;;;;;-1.69;83.16;100760.92;126535;1093;104395;-74
2020/12/01 02:55:07;;;;;;;104.93;51.53;;;;;;;-1.69;82.63;100754.95;126676;1091;104906;-76
2020/12/01 02:57:34;;;;;;;106.00;51.83;;;;;;;-1.69;83.28;100737.91;126666;1093;104564;-75
2020/12/01 03:00:05;;;;;;;105.73;50.40;;;;;;;-1.69;82.44;100744.72;126656;1098;104519;-75
2020/12/01 03:02:32;;;;;;;107.63;53.73;;;;;;;-1.69;82.86;100739.60;126665;1093;104400;-75
2020/12/01 03:04:59;;;;;;;108.97;52.60;;;;;;;-1.69;82.95;100740.47;126644;1093;104491;-75
2020/12/01 03:07:26;;;;;;;112.57;54.33;;;;;;;-1.66;83.19;100734.56;126678;1093;104510;-75
2020/12/01 03:09:53;;;;;;;106.15;53.10;;;;;;;-1.67;82.90;100743.06;126682;1093;104346;-74
2020/12/01 03:12:21;;;;;;;108.20;52.13;;;;;;;-1.66;82.77;100737.11;126647;1093;104511;-75
2020/12/01 03:14:48;;;;;;;108.40;52.10;;;;;;;-1.66;83.24;100747.34;126727;1093;104621;-75
2020/12/01 03:17:15;;;;;;;107.93;51.47;;;;;;;-1.63;82.78;100755.95;126746;1093;104433;-75
2020/12/01 03:19:42;;;;;;;105.87;52.37;;;;;;;-1.63;83.25;100744.86;126704;1093;104513;-75
2020/12/01 03:22:09;;;;;;;112.90;54.88;;;;;;;-1.63;83.27;100762.77;126617;1093;104504;-76
2020/12/01 03:24:36;;;;;;;103.80;51.57;;;;;;;-1.67;83.32;100755.84;126670;1093;104324;-75
2020/12/01 03:27:03;;;;;;;108.10;53.58;;;;;;;-1.69;83.54;100754.95;126680;1093;104432;-75
2020/12/01 03:29:30;;;;;;;105.90;53.27;;;;;;;-1.69;83.67;100754.95;126694;1093;104555;-74
2020/12/01 03:31:57;;;;;;;114.82;53.02;;;;;;;-1.70;84.01;100753.22;126738;1093;104513;-75
2020/12/01 03:34:24;;;;;;;110.73;55.07;;;;;;;-1.72;83.80;100744.64;126664;1093;104465;-75
2020/12/01 03:36:51;;;;;;;97.00;49.13;;;;;;;-1.72;83.23;100752.31;126658;1094;105090;-75
2020/12/01 03:39:18;;;;;;;104.23;53.43;;;;;;;-1.74;83.27;100751.41;126688;1093;104375;-75
2020/12/01 03:41:45;;;;;;;105.63;52.60;;;;;;;-1.76;83.29;100747.95;126646;1093;104612;-74
2020/12/01 03:44:12;;;;;;;107.80;52.97;;;;;;;-1.78;83.60;100741.95;126645;1093;104404;-75
2020/12/01 03:46:39;;;;;;;110.00;53.83;;;;;;;-1.77;83.25;100747.09;126779;1093;104561;-75
2020/12/01 03:49:06;;;;;;;107.23;53.13;;;;;;;-1.75;83.34;100739.45;126670;1091;104536;-75
2020/12/01 03:51:33;;;;;;;106.47;52.62;;;;;;;-1.73;83.01;100750.59;126659;1093;104506;-75
2020/12/01 03:54:00;;;;;;;103.10;52.93;;;;;;;-1.74;83.02;100749.72;126651;1093;104576;-75
2020/12/01 03:56:27;;;;;;;105.90;50.73;;;;;;;-1.75;83.71;100745.44;126690;1093;104452;-75
2020/12/01 03:58:54;;;;;;;107.27;53.50;;;;;;;-1.75;83.34;100744.58;126686;1092;104423;-75
2020/12/01 04:01:22;;;;;;;106.07;52.77;;;;;;;-1.75;83.15;100742.02;126742;1098;104414;-75
2020/12/01 04:03:49;;;;;;;105.30;51.93;;;;;;;-1.75;83.07;100734.34;126711;1093;104532;-75
2020/12/01 04:06:16;;;;;;;105.93;52.37;;;;;;;-1.75;83.62;100734.34;126644;1090;104469;-74
2020/12/01 04:08:43;;;;;;;104.73;52.83;;;;;;;-1.77;83.43;100748.78;126680;1093;104395;-75
2020/12/01 04:11:10;;;;;;;99.67;50.30;;;;;;;-1.80;82.93;100735.89;126705;1093;104429;-75
2020/12/01 04:13:37;;;;;;;98.17;49.00;;;;;;;-1.84;83.64;100735.83;126738;1093;104551;-75
2020/12/01 04:16:05;;;;;;;98.57;49.17;;;;;;;-1.84;82.96;100732.41;126595;1094;104455;-75
2020/12/01 04:18:32;;;;;;;101.90;50.70;;;;;;;-1.85;83.51;100723.87;126669;1091;104472;-75
2020/12/01 04:20:59;;;;;;;97.87;48.83;;;;;;;-1.84;83.30;100727.29;126657;1094;104400;-75
2020/12/01 04:23:26;;;;;;;103.03;51.50;;;;;;;-1.84;83.16;100724.73;126761;1093;104453;-75
2020/12/01 04:25:54;;;;;;;94.13;46.30;;;;;;;-1.86;83.17;100728.95;126659;1093;103688;-75
2020/12/01 04:28:21;;;;;;;94.13;47.27;;;;;;;-1.87;83.04;100720.41;126708;1093;104445;-75
2020/12/01 04:30:48;;;;;;;91.07;47.73;;;;;;;-1.87;82.83;100729.77;126661;1093;104513;-75
2020/12/01 04:33:15;;;;;;;98.83;47.60;;;;;;;-1.87;82.92;100729.77;126714;1093;104640;-76
2020/12/01 04:35:42;;;;;;;93.20;45.47;;;;;;;-1.88;82.89;100739.13;126664;1093;104580;-75
2020/12/01 04:38:09;;;;;;;95.05;46.35;;;;;;;-1.88;82.75;100728.91;126725;1093;104468;-75
2020/12/01 04:40:39;;;;;;;95.47;45.93;;;;;;;-1.89;82.99;100723.76;126673;1093;104579;-76
2020/12/01 04:43:14;;;;;;;93.60;46.20;;;;;;;-1.89;83.05;100722.06;126693;1093;104462;-75
2020/12/01 04:45:45;;;;;;;85.83;44.47;;;;;;;-1.90;83.18;100727.14;126677;1093;104545;-76
2020/12/01 04:48:25;;;;;;;88.37;44.47;;;;;;;-1.91;82.50;100723.72;126645;1093;104278;-75
2020/12/01 04:51:00;;;;;;;90.40;45.23;;;;;;;-1.92;82.77;100714.33;126657;1098;104442;-76
2020/12/01 04:53:59;;;;;;;87.57;44.27;;;;;;;-1.90;82.58;100730.56;126682;1093;104519;-76
2020/12/01 04:56:53;;;;;;;87.33;42.90;;;;;;;-1.91;82.85;100717.75;126740;1093;104404;-75
2020/12/01 04:59:23;;;;;;;92.47;46.00;;;;;;;-1.91;82.54;100715.19;126633;1093;104401;-76
2020/12/01 05:02:28;;;;;;;90.50;44.07;;;;;;;-1.91;82.30;100708.38;126655;1098;104228;-75
2020/12/01 05:05:17;;;;;;;92.20;44.10;;;;;;;-1.92;82.93;100706.66;126703;1093;104363;-76
2020/12/01 05:08:17;;;;;;;96.30;47.50;;;;;;;-1.91;82.28;100716.05;126664;1093;104605;-75
2020/12/01 05:10:48;;;;;;;91.23;45.00;;;;;;;-1.93;82.57;100707.48;126696;1093;104432;-75
2020/12/01 05:13:26;;;;;;;91.10;44.43;;;;;;;-1.93;82.55;100704.92;126692;1093;105234;-76
2020/12/01 05:15:58;;;;;;;92.17;46.50;;;;;;;-1.93;82.81;100704.92;126664;1093;104526;-75
2020/12/01 05:18:29;;;;;;;93.30;47.13;;;;;;;-1.93;82.51;100702.38;126677;1093;104359;-75
2020/12/01 05:21:00;;;;;;;98.40;46.77;;;;;;;-1.93;82.54;100707.48;126692;1093;104532;-75
2020/12/01 05:23:33;;;;;;;94.03;47.57;;;;;;;-1.93;82.52;100711.73;126653;1093;104417;-75
2020/12/01 05:26:04;;;;;;;96.60;48.43;;;;;;;-1.95;83.14;100711.70;126720;1093;106286;-75
2020/12/01 05:28:46;;;;;;;92.97;47.27;;;;;;;-1.97;82.53;100713.35;126710;1093;104240;-75
2020/12/01 05:31:15;;;;;;;100.37;49.60;;;;;;;-2.00;82.16;100703.02;126682;1093;104471;-76
2020/12/01 05:33:42;;;;;;;101.37;50.30;;;;;;;-2.02;82.85;100706.37;126688;1093;104547;-75
2020/12/01 05:36:21;;;;;;;95.77;49.40;;;;;;;-2.03;82.43;100705.50;126774;1093;104394;-76
2020/12/01 05:39:15;;;;;;;97.77;48.20;;;;;;;-2.06;82.75;100712.23;126693;1091;104459;-75
2020/12/01 05:41:45;;;;;;;100.37;49.73;;;;;;;-2.08;82.74;100719.00;126602;1093;104173;-76
2020/12/01 05:44:21;;;;;;;101.10;50.00;;;;;;;-2.11;83.72;100718.92;126674;1098;104270;-76
2020/12/01 05:46:55;;;;;;;86.53;40.93;;;;;;;-2.14;82.59;100714.59;126647;1093;104462;-76
2020/12/01 05:49:31;;;;;;;90.10;46.07;;;;;;;-2.17;83.69;100715.36;126710;1093;104465;-75
2020/12/01 05:52:53;;;;;;;97.85;47.65;;;;;;;-2.16;82.98;100716.22;126622;1093;104534;-75
2020/12/01 05:55:26;;;;;;;94.90;46.70;;;;;;;-2.16;83.33;100716.22;126403;1096;105042;-75
2020/12/01 05:58:12;;;;;;;94.00;48.47;;;;;;;-2.15;83.25;100721.41;126358;1096;104640;-76
2020/12/01 06:00:42;;;;;;;96.87;46.88;;;;;;;-2.14;83.05;100714.59;126403;1096;104519;-75
2020/12/01 06:03:34;;;;;;;93.93;46.50;;;;;;;-2.14;82.63;100715.47;126426;1096;102664;-74
2020/12/01 06:06:02;;;;;;;100.93;48.40;;;;;;;-2.14;82.87;100718.02;126354;1097;104558;-75
2020/12/01 06:08:29;;;;;;;102.87;48.93;;;;;;;-2.14;82.44;100730.80;126088;1096;104480;-75
2020/12/01 06:11:19;;;;;;;98.82;48.30;;;;;;;-2.11;83.29;100724.90;126333;1096;104641;-75
2020/12/01 06:13:46;;;;;;;87.90;46.27;;;;;;;-2.11;83.04;100737.67;126315;1096;104427;-75
2020/12/01 06:16:26;;;;;;;98.70;50.17;;;;;;;-2.11;83.08;100730.01;126442;1096;104422;-75
2020/12/01 06:19:12;;;;;;;93.03;48.00;;;;;;;-2.12;82.67;100735.95;126371;1096;105050;-76
2020/12/01 06:21:51;;;;;;;93.60;48.03;;;;;;;-2.12;82.71;100733.39;126346;1096;104548;-75
2020/12/01 06:24:37;;;;;;;98.83;49.77;;;;;;;-2.10;82.98;100746.20;126406;1096;104516;-75
2020/12/01 06:27:22;;;;;;;96.20;47.73;;;;;;;-2.10;82.72;100749.63;126350;1096;104484;-76
2020/12/01 06:29:55;;;;;;;97.57;47.73;;;;;;;-2.07;82.35;100748.84;126380;1096;103876;-75
2020/12/01 06:32:40;;;;;;;93.47;48.20;;;;;;;-2.08;82.57;100758.20;126609;1096;104510;-75
2020/12/01 06:35:37;;;;;;;91.50;48.75;;;;;;;-2.07;83.05;100751.39;126650;1098;104432;-75
2020/12/01 06:38:13;;;;;;;90.40;46.53;;;;;;;-2.07;82.94;100751.39;126466;1098;104311;-75
2020/12/01 06:40:46;;;;;;;98.52;49.08;;;;;;;-2.07;82.74;100762.48;126367;1094;104350;-75
2020/12/01 06:43:22;;;;;;;91.33;48.57;;;;;;;-2.06;82.40;100758.23;126344;1098;104461;-75
2020/12/01 06:45:53;;;;;;;94.10;47.70;;;;;;;-2.04;82.90;100761.70;126373;1096;104368;-76
2020/12/01 06:48:31;;;;;;;96.30;46.43;;;;;;;-2.01;82.35;100751.55;126395;1100;104243;-76
2020/12/01 06:51:00;;;;;;;97.67;46.20;;;;;;;-1.97;82.05;100743.16;126389;1097;104911;-76
2020/12/01 06:53:34;;;;;;;94.57;48.90;;;;;;;-1.93;82.42;100750.08;126425;1093;105088;-75
2020/12/01 06:56:04;;;;;;;98.27;50.07;;;;;;;-1.91;82.50;100759.52;126347;1093;105347;-75
2020/12/01 06:58:36;;;;;;;97.47;49.40;;;;;;;-1.83;81.94;100757.14;126385;1101;104751;-75
2020/12/01 07:01:22;;;;;;;99.93;50.40;;;;;;;-1.75;81.74;100762.47;126336;1093;104455;-77
2020/12/01 07:04:07;;;;;;;97.40;50.23;;;;;;;-1.67;81.92;100764.38;126381;1093;104555;-75
2020/12/01 07:06:52;;;;;;;102.83;50.27;;;;;;;-1.58;81.46;100758.66;126344;1093;104410;-75
2020/12/01 07:09:26;;;;;;;99.23;49.27;;;;;;;-1.47;81.50;100754.64;126362;1093;104378;-75
2020/12/01 07:12:19;;;;;;;85.93;46.50;;;;;;;-1.36;80.82;100757.48;126482;1096;104401;-76
2020/12/01 07:14:50;;;;;;;86.97;45.93;;;;;;;-1.34;80.23;100759.23;126450;1096;104250;-76
2020/12/01 07:17:20;;;;;;;89.90;46.63;;;;;;;-1.35;80.26;100756.65;126688;1093;104871;-76
2020/12/01 07:20:00;;;;;;;92.83;48.33;;;;;;;-1.37;80.22;100769.41;126684;1092;104426;-76
2020/12/01 07:22:41;;;;;;;81.10;44.57;;;;;;;-1.39;79.51;100770.20;126684;1098;104388;-76
2020/12/01 07:25:44;;;;;;;89.33;45.00;;;;;;;-1.40;80.05;100765.91;126527;1093;104526;-75
2020/12/01 07:28:20;;;;;;;85.00;43.87;;;;;;;-1.36;80.13;100771.14;126676;1093;104692;-74
2020/12/01 07:30:52;;;;;;;;;;;;;;;-1.27;79.67;100763.66;126670;1093;104394;-75
2020/12/01 07:33:28;;;;;;;86.87;42.23;;;;;;;-1.16;79.43;100755.39;126668;1093;104411;-75
2020/12/01 07:36:11;;;;;;;85.10;42.70;;;;;;;-1.06;79.12;100760.77;126678;1098;104478;-75
2020/12/01 07:39:10;;;;;;;83.73;42.60;;;;;;;-0.94;78.99;100761.02;126625;1098;104398;-75
2020/12/01 07:41:46;;;;;;;81.53;42.20;;;;;;;-0.77;78.86;100760.53;126633;1093;104528;-75
2020/12/01 07:44:18;;;;;;;80.73;42.07;;;;;;;-0.61;78.49;100776.27;126666;1093;104336;-75
2020/12/01 07:46:59;;;;;;;78.23;40.83;;;;;;;-0.48;77.29;100771.41;126675;1093;104375;-75
2020/12/01 07:49:32;;;;;;;73.33;39.70;;;;;;;-0.35;76.81;100769.14;126682;1093;104419;-75
2020/12/01 07:52:08;;;;;;;75.20;41.25;;;;;;;-0.21;76.18;100761.70;126682;1093;105087;-75
2020/12/01 07:54:38;;;;;;;79.10;41.63;;;;;;;-0.02;76.37;100773.17;126682;1093;104494;-75
2020/12/01 07:57:16;;;;;;;71.33;39.03;;;;;;;0.09;74.95;100771.69;126644;1093;104620;-75
2020/12/01 07:59:45;;;;;;;67.90;38.03;;;;;;;0.20;75.07;100771.91;126725;1093;104471;-75
2020/12/01 08:02:14;;;;;;;72.80;40.35;;;;;;;0.29;74.17;100779.75;126646;1093;105538;-75
2020/12/01 08:04:42;;;;;;;69.20;39.50;;;;;;;0.39;74.70;100771.39;126743;1093;104971;-75
2020/12/01 08:07:15;;;;;;;67.80;38.77;;;;;;;0.52;74.15;100778.44;126663;1093;104471;-75
2020/12/01 08:09:45;;;;;;;64.83;37.03;;;;;;;0.62;73.18;100794.88;126758;1093;104462;-75
2020/12/01 08:12:16;;;;;;;65.00;37.53;;;;;;;0.70;73.66;100789.85;126661;1091;104395;-75
2020/12/01 08:14:51;;;;;;;66.07;37.03;;;;;;;0.80;72.94;100796.87;126698;1093;104598;-74
2020/12/01 08:17:27;;;;;;;65.90;38.60;;;;;;;0.94;72.68;100786.83;126757;1093;104382;-75
2020/12/01 08:19:55;;;;;;;64.62;37.88;;;;;;;1.04;71.43;100806.66;126695;1098;104199;-75
2020/12/01 08:22:31;;;;;;;65.77;37.80;;;;;;;1.12;71.19;100793.11;126713;1093;104554;-75
2020/12/01 08:25:03;;;;;;;68.87;38.17;;;;;;;1.16;71.37;100800.02;126701;1093;104346;-75
2020/12/01 08:27:41;;;;;;;67.07;36.37;;;;;;;1.23;70.55;100795.81;126688;1093;104438;-75
2020/12/01 08:30:17;;;;;;;66.03;37.50;;;;;;;1.26;70.34;100806.17;126689;1093;104398;-75
2020/12/01 08:32:46;;;;;;;66.13;36.53;;;;;;;1.35;70.90;100805.42;126625;1092;104417;-75
2020/12/01 08:35:24;;;;;;;67.07;37.10;;;;;;;1.48;70.18;100794.47;126659;1093;104394;-75
2020/12/01 08:38:02;;;;;;;66.63;38.10;;;;;;;1.58;70.51;100798.02;126661;1093;104579;-75
2020/12/01 08:40:45;;;;;;;64.03;37.57;;;;;;;1.69;70.53;100799.03;126712;1093;102992;-76
2020/12/01 08:43:20;;;;;;;64.23;36.00;;;;;;;1.83;68.74;100805.21;126672;1098;104429;-75
2020/12/01 08:46:07;;;;;;;62.43;35.93;;;;;;;1.89;67.63;100806.98;126641;1093;105822;-76
2020/12/01 08:48:38;;;;;;;;;;;;;;;1.90;67.95;100812.14;126828;1098;104381;-75
2020/12/01 08:51:16;;;;;;;61.90;36.07;;;;;;;1.94;68.74;100816.47;126616;1093;104407;-74
2020/12/01 08:53:51;;;;;;;65.60;37.37;;;;;;;2.09;68.60;100808.08;126750;1094;104449;-75
2020/12/01 08:56:30;;;;;;;61.23;36.07;;;;;;;2.19;66.79;100809.91;126674;1093;104741;-75
2020/12/01 08:59:03;;;;;;;64.40;37.30;;;;;;;2.30;66.69;100805.72;126534;1093;104286;-75
2020/12/01 09:01:39;;;;;;;68.45;35.75;;;;;;;2.47;67.11;100807.61;126652;1093;104438;-75
2020/12/01 09:04:23;;;;;;;57.53;35.30;;;;;;;2.62;67.98;100802.61;126701;1093;105594;-75
2020/12/01 09:06:52;;;;;;;57.90;35.07;;;;;;;2.78;66.34;100796.74;126647;1093;103368;-75
2020/12/01 09:09:29;;;;;;;59.03;35.30;;;;;;;2.90;66.69;100811.44;126664;1094;104462;-75
2020/12/01 09:12:14;;;;;;;60.10;35.23;;;;;;;2.90;65.33;100812.30;126629;1093;104602;-75
2020/12/01 09:14:56;;;;;;;61.97;34.67;;;;;;;2.94;66.15;100795.16;126646;1093;104235;-75
2020/12/01 09:20:47;;;;;;;57.17;33.53;;;;;;;3.06;64.10;100813.30;126679;1093;104359;-75
2020/12/01 09:23:23;;;;;;;56.37;34.55;;;;;;;3.04;65.27;100805.52;126641;1093;104365;-75
2020/12/01 09:25:52;;;;;;;55.93;33.47;;;;;;;3.11;64.51;100803.01;126666;1093;104420;-75
2020/12/01 09:28:26;;;;;;;51.43;31.87;;;;;;;3.21;65.47;100792.75;126695;1098;104903;-73
2020/12/01 09:30:59;;;;;;;52.30;32.90;;;;;;;3.31;62.83;100804.86;126687;1093;104461;-74
2020/12/01 09:33:26;;;;;;;55.43;33.23;;;;;;;3.30;64.07;100790.25;126698;1093;104385;-76
2020/12/01 09:35:54;;;;;;;51.63;32.20;;;;;;;3.40;64.75;100796.30;126651;1098;102777;-75
2020/12/01 09:38:22;;;;;;;52.03;31.07;;;;;;;3.50;63.22;100798.09;126653;1093;104429;-74
2020/12/01 09:40:51;;;;;;;54.97;32.97;;;;;;;3.53;63.06;100789.50;126660;1093;104433;-74
2020/12/01 09:43:30;;;;;;;53.17;32.43;;;;;;;3.59;62.83;100787.84;126755;1093;104484;-75
2020/12/01 09:46:00;;;;;;;56.97;33.17;;;;;;;3.63;61.67;100793.88;126667;1093;104365;-74
2020/12/01 09:48:34;;;;;;;54.47;31.73;;;;;;;3.66;62.26;100790.44;126626;1093;104435;-75
2020/12/01 09:51:02;;;;;;;52.37;31.97;;;;;;;3.73;62.43;100794.76;126580;1093;104381;-75
2020/12/01 09:56:27;;;;;;;53.07;31.53;;;;;;;3.73;60.30;100803.36;126677;1093;104426;-74
2020/12/01 10:09:49;;;;;;;53.37;32.70;;;;;;;3.83;62.14;100781.05;126644;1093;105065;-74
2020/12/01 10:12:20;;;;;;;54.23;33.30;;;;;;;4.00;62.77;100768.21;126673;1093;104385;-74
2020/12/01 10:17:45;;;;;;;49.63;31.87;;;;;;;4.17;59.87;100775.14;126656;1093;104532;-74
2020/12/01 10:25:57;;;;;;;54.03;32.53;;;;;;;4.13;59.82;100769.94;126694;1093;104361;-74
2020/12/01 10:36:53;;;;;;;54.75;31.45;;;;;;;3.96;60.99;100775.09;126651;1093;104372;-74
2020/12/01 10:39:21;;;;;;;52.40;30.95;;;;;;;4.06;59.92;100771.66;126685;1090;104418;-75
2020/12/01 10:41:48;;;;;;;49.13;29.67;;;;;;;4.09;60.70;100770.80;126774;1093;104388;-74
2020/12/01 10:44:15;;;;;;;54.93;31.40;;;;;;;4.04;59.94;100768.22;126634;1093;104432;-74
2020/12/01 10:46:50;;;;;;;50.57;30.57;;;;;;;4.00;59.45;100766.48;126683;1093;104810;-74
2020/12/01 10:49:18;;;;;;;50.05;30.45;;;;;;;3.89;59.15;100768.16;126598;1098;104544;-74
2020/12/01 10:51:49;;;;;;;47.00;28.57;;;;;;;3.86;59.45;100768.16;126679;1093;103285;-74
2020/12/01 10:54:17;;;;;;;47.67;28.67;;;;;;;3.78;59.83;100770.73;126682;1093;104526;-75
2020/12/01 10:56:47;;;;;;;46.77;27.53;;;;;;;3.81;59.92;100782.77;126639;1093;104519;-74
2020/12/01 10:59:16;;;;;;;44.17;28.17;;;;;;;3.82;59.23;100785.35;126747;1093;104888;-75
2020/12/01 11:01:44;;;;;;;44.67;26.77;;;;;;;3.75;58.49;100799.06;126715;1092;104516;-74
2020/12/01 11:04:11;;;;;;;50.93;28.57;;;;;;;3.72;59.02;100775.84;126633;1093;104503;-74
2020/12/01 11:06:39;;;;;;;47.67;26.50;;;;;;;3.80;60.42;100774.17;126654;1093;104440;-74
2020/12/01 11:09:08;;;;;;;43.70;24.93;;;;;;;3.88;58.51;100790.52;126635;1093;104372;-74
2020/12/01 11:11:36;;;;;;;42.80;25.90;;;;;;;3.90;59.59;100785.37;126730;1093;104392;-74
2020/12/01 11:14:05;;;;;;;38.33;23.83;;;;;;;3.94;59.91;100775.05;126717;1093;104484;-74
2020/12/01 11:16:35;;;;;;;41.55;25.90;;;;;;;3.93;58.51;100781.07;126681;1093;104867;-75
2020/12/01 11:19:05;;;;;;;42.55;25.65;;;;;;;3.94;59.88;100769.03;126678;1093;102782;-74
2020/12/01 11:21:36;;;;;;;44.20;26.80;;;;;;;4.00;59.18;100781.97;126690;1098;103763;-74
2020/12/01 11:24:05;;;;;;;44.87;26.13;;;;;;;3.99;58.65;100769.93;126682;1093;104461;-74
2020/12/01 11:26:32;;;;;;;43.53;24.67;;;;;;;3.94;57.67;100774.19;126684;1093;104442;-74
2020/12/01 11:29:01;;;;;;;42.93;26.20;;;;;;;3.89;58.66;100774.19;126735;1093;104381;-74
2020/12/01 11:31:32;;;;;;;41.50;25.53;;;;;;;3.91;59.31;100769.89;126724;1093;104512;-74
2020/12/01 11:34:06;;;;;;;45.80;27.15;;;;;;;3.91;59.16;100776.77;126478;1093;104419;-75
2020/12/01 11:36:36;;;;;;;45.13;26.77;;;;;;;3.78;58.37;100783.63;126643;1099;102960;-75
2020/12/01 11:39:10;;;;;;;42.73;26.13;;;;;;;3.69;59.43;100780.13;126475;1093;104365;-75
2020/12/01 11:41:38;;;;;;;43.57;25.33;;;;;;;3.67;58.90;100798.18;126652;1090;104365;-75
2020/12/01 11:44:06;;;;;;;41.57;24.40;;;;;;;3.62;58.10;100784.41;126624;1094;104551;-74
2020/12/01 11:46:33;;;;;;;38.70;23.33;;;;;;;3.56;58.51;100792.09;126730;1093;104570;-74
2020/12/01 11:49:01;;;;;;;42.97;24.63;;;;;;;3.52;59.20;100793.80;126716;1093;104193;-74
2020/12/01 11:51:35;;;;;;;40.27;23.83;;;;;;;3.51;59.15;100784.34;126613;1093;104372;-74